createdAt,value
2019-05-29T00:01:23.263Z,97576.92
2019-05-29T00:03:51.173Z,97577.50
2019-05-29T00:06:19.103Z,97586.80
2019-05-29T00:08:46.859Z,97583.20
2019-05-29T00:11:14.634Z,97588.91
2019-05-29T00:13:42.390Z,97589.38
2019-05-29T00:16:10.402Z,97589.83
2019-05-29T00:18:38.269Z,97594.05
2019-05-29T00:21:06.344Z,97598.03
2019-05-29T00:23:34.495Z,97604.61
2019-05-29T00:26:02.271Z,97603.38
2019-05-29T00:28:30.034Z,97603.51
2019-05-29T00:30:57.794Z,97601.83
2019-05-29T00:33:25.971Z,97609.77
2019-05-29T00:35:53.727Z,97608.06
2019-05-29T00:38:21.484Z,97611.92
2019-05-29T00:40:49.275Z,97613.63
2019-05-29T00:43:17.572Z,97617.92
2019-05-29T00:45:45.520Z,97623.27
2019-05-29T00:48:14.014Z,97624.41
2019-05-29T00:50:41.947Z,97628.27
2019-05-29T00:53:10.136Z,97627.48
2019-05-29T00:55:37.942Z,97627.58
2019-05-29T00:58:05.772Z,97638.67
2019-05-29T01:00:33.543Z,97631.53
2019-05-29T01:03:01.322Z,97633.34
2019-05-29T01:05:29.084Z,97634.25
2019-05-29T01:07:56.848Z,97640.58
2019-05-29T01:10:24.995Z,97647.29
2019-05-29T01:12:52.872Z,97644.79
2019-05-29T01:15:21.524Z,97650.90
2019-05-29T01:17:49.399Z,97647.39
2019-05-29T01:20:18.050Z,97647.83
2019-05-29T01:22:45.898Z,97652.48
2019-05-29T01:25:14.434Z,97655.64
2019-05-29T01:27:42.281Z,97656.19
2019-05-29T01:30:10.139Z,97658.34
2019-05-29T01:32:38.332Z,97655.05
2019-05-29T01:35:06.160Z,97661.41
2019-05-29T01:37:33.935Z,97659.70
2019-05-29T01:40:16.612Z,97668.21
2019-05-29T01:42:31.215Z,97664.92
2019-05-29T01:45:07.910Z,97661.19
2019-05-29T01:47:28.564Z,97670.71
2019-05-29T01:49:56.398Z,97659.61
2019-05-29T01:52:24.170Z,97675.02
2019-05-29T01:54:51.952Z,97674.45
2019-05-29T01:57:19.769Z,97672.30
2019-05-29T01:59:47.571Z,97678.30
2019-05-29T02:02:15.792Z,97682.95
2019-05-29T02:04:43.677Z,97680.36
2019-05-29T02:07:11.774Z,97685.23
2019-05-29T02:09:39.604Z,97691.81
2019-05-29T02:12:07.369Z,97693.39
2019-05-29T02:14:35.126Z,97692.03
2019-05-29T02:17:02.914Z,97701.21
2019-05-29T02:19:30.684Z,97693.27
2019-05-29T02:21:58.525Z,97695.33
2019-05-29T02:24:27.441Z,97692.83
2019-05-29T02:26:55.280Z,97695.99
2019-05-29T02:29:24.791Z,97693.05
2019-05-29T02:31:52.789Z,97692.80
2019-05-29T02:34:22.321Z,97695.08
2019-05-29T02:36:50.062Z,97691.34
2019-05-29T02:39:18.714Z,97692.83
2019-05-29T02:41:47.180Z,97699.73
2019-05-29T02:44:14.947Z,97694.28
2019-05-29T02:46:43.056Z,97700.64
2019-05-29T02:49:10.819Z,97708.80
2019-05-29T02:51:38.579Z,97705.17
2019-05-29T02:54:06.465Z,97717.42
2019-05-29T02:56:34.216Z,97713.33
2019-05-29T02:59:02.346Z,97721.28
2019-05-29T03:01:31.695Z,97724.78
2019-05-29T03:03:59.751Z,97716.05
2019-05-29T03:06:28.103Z,97719.45
2019-05-29T03:08:56.273Z,97728.41
2019-05-29T03:11:25.198Z,97724.80
2019-05-29T03:13:53.905Z,97722.08
2019-05-29T03:16:23.644Z,97730.12
2019-05-29T03:18:51.223Z,97733.28
2019-05-29T03:21:19.007Z,97737.58
2019-05-29T03:23:46.814Z,97744.30
2019-05-29T03:26:14.581Z,97748.58
2019-05-29T03:28:42.686Z,97743.47
2019-05-29T03:31:10.488Z,97754.14
2019-05-29T03:33:47.143Z,97764.41
2019-05-29T03:36:07.827Z,97765.25
2019-05-29T03:38:35.599Z,97763.67
2019-05-29T03:41:03.373Z,97770.48
2019-05-29T03:43:32.945Z,97765.86
2019-05-29T03:46:00.962Z,97769.85
2019-05-29T03:48:29.868Z,97774.73
2019-05-29T03:50:57.895Z,97764.62
2019-05-29T03:53:26.888Z,97767.57
2019-05-29T03:55:54.913Z,97775.27
2019-05-29T03:58:22.676Z,97775.49
2019-05-29T04:00:50.575Z,97786.52
2019-05-29T04:03:18.492Z,97777.30
2019-05-29T04:05:46.341Z,97782.14
2019-05-29T04:08:14.384Z,97786.67
2019-05-29T04:10:42.152Z,97778.27
2019-05-29T04:13:09.911Z,97785.17
2019-05-29T04:15:38.651Z,97792.65
2019-05-29T04:18:07.373Z,97796.00
2019-05-29T04:20:36.060Z,97797.84
2019-05-29T04:23:04.890Z,97803.52
2019-05-29T04:25:37.248Z,97805.06
2019-05-29T04:28:03.154Z,97809.49
2019-05-29T04:30:32.038Z,97812.44
2019-05-29T04:32:59.909Z,97813.10
2019-05-29T04:35:28.340Z,97813.58
2019-05-29T04:37:56.281Z,97819.13
2019-05-29T04:40:24.124Z,97820.14
2019-05-29T04:42:51.874Z,97822.20
2019-05-29T04:45:19.735Z,97824.92
2019-05-29T04:47:47.497Z,97832.05
2019-05-29T04:50:15.264Z,97832.50
2019-05-29T04:52:43.062Z,97833.59
2019-05-29T04:55:10.903Z,97838.17
2019-05-29T04:57:39.268Z,97839.27
2019-05-29T05:00:07.404Z,97847.67
2019-05-29T05:02:35.183Z,97847.58
2019-05-29T05:05:03.035Z,97850.00
2019-05-29T05:07:31.139Z,97855.80
2019-05-29T05:09:59.035Z,97854.84
2019-05-29T05:12:26.799Z,97859.50
2019-05-29T05:14:54.579Z,97859.11
2019-05-29T05:17:26.307Z,97864.92
2019-05-29T05:19:52.114Z,97866.69
2019-05-29T05:22:19.907Z,97868.81
2019-05-29T05:24:47.682Z,97873.30
2019-05-29T05:27:15.591Z,97881.80
2019-05-29T05:29:43.371Z,97876.41
2019-05-29T05:32:11.930Z,97886.70
2019-05-29T05:34:40.902Z,97890.23
2019-05-29T05:37:08.858Z,97885.64
2019-05-29T05:39:37.294Z,97890.92
2019-05-29T05:42:05.254Z,97891.42
2019-05-29T05:44:34.950Z,97894.89
2019-05-29T05:47:03.389Z,97895.73
2019-05-29T05:49:31.289Z,97899.20
2019-05-29T05:51:59.163Z,97896.20
2019-05-29T05:54:27.028Z,97902.77
2019-05-29T05:56:54.788Z,97908.51
2019-05-29T05:59:22.591Z,97906.20
2019-05-29T06:01:50.358Z,97906.85
2019-05-29T06:04:18.191Z,97910.62
2019-05-29T06:06:46.063Z,97906.84
2019-05-29T06:09:13.827Z,97911.73
2019-05-29T06:11:42.542Z,97913.84
2019-05-29T06:14:10.548Z,97911.05
2019-05-29T06:16:38.631Z,97916.88
2019-05-29T06:19:06.567Z,97920.37
2019-05-29T06:21:34.636Z,97915.63
2019-05-29T06:24:02.479Z,97920.53
2019-05-29T06:26:30.339Z,97924.25
2019-05-29T06:28:58.193Z,97920.94
2019-05-29T06:31:27.255Z,97928.20
2019-05-29T06:33:55.743Z,97930.66
2019-05-29T06:36:23.656Z,97929.14
2019-05-29T06:38:51.788Z,97932.88
2019-05-29T06:41:19.563Z,97938.42
2019-05-29T06:43:47.485Z,97933.28
2019-05-29T06:46:15.293Z,97937.40
2019-05-29T06:48:57.940Z,97935.63
2019-05-29T06:51:12.639Z,97936.80
2019-05-29T06:53:41.694Z,97939.27
2019-05-29T06:56:09.633Z,97936.66
2019-05-29T06:58:38.110Z,97947.70
2019-05-29T07:01:05.917Z,97952.70
2019-05-29T07:03:33.784Z,97954.00
2019-05-29T07:06:01.883Z,97956.28
2019-05-29T07:08:38.674Z,97957.55
2019-05-29T07:10:59.662Z,97956.92
2019-05-29T07:13:27.709Z,97963.19
2019-05-29T07:15:55.483Z,97963.35
2019-05-29T07:18:23.267Z,97967.98
2019-05-29T07:20:51.122Z,97967.83
2019-05-29T07:23:18.883Z,97964.36
2019-05-29T07:25:47.457Z,97975.22
2019-05-29T07:28:15.419Z,97979.48
2019-05-29T07:30:49.542Z,97979.84
2019-05-29T07:33:13.027Z,97981.22
2019-05-29T07:35:41.401Z,97987.61
2019-05-29T07:38:09.286Z,97984.83
2019-05-29T07:40:38.380Z,97987.58
2019-05-29T07:43:06.800Z,97988.97
2019-05-29T07:45:34.622Z,97997.52
2019-05-29T07:48:02.467Z,98003.70
2019-05-29T07:50:30.764Z,98003.03
2019-05-29T07:52:58.578Z,98005.70
2019-05-29T07:55:26.431Z,98006.20
2019-05-29T07:57:54.650Z,98005.97
2019-05-29T08:00:22.440Z,98008.87
2019-05-29T08:02:50.232Z,98006.98
2019-05-29T08:05:18.110Z,98012.88
2019-05-29T08:07:47.450Z,98011.48
2019-05-29T08:10:15.427Z,98010.89
2019-05-29T08:12:48.524Z,98019.20
2019-05-29T08:15:13.306Z,98020.66
2019-05-29T08:17:42.029Z,98020.78
2019-05-29T08:20:10.197Z,98025.58
2019-05-29T08:22:38.150Z,98025.59
2019-05-29T08:25:07.005Z,98024.06
2019-05-29T08:27:34.808Z,98026.11
2019-05-29T08:30:02.754Z,98022.02
2019-05-29T08:32:30.907Z,98027.72
2019-05-29T08:34:58.760Z,98034.34
2019-05-29T08:37:26.515Z,98030.53
2019-05-29T08:39:54.626Z,98031.83
2019-05-29T08:42:23.860Z,98033.72
2019-05-29T08:44:52.019Z,98037.26
2019-05-29T08:47:20.185Z,98035.02
2019-05-29T08:49:52.485Z,98034.20
2019-05-29T08:52:17.797Z,98039.91
2019-05-29T08:54:46.026Z,98038.28
2019-05-29T08:57:14.031Z,98036.73
2019-05-29T08:59:42.428Z,98042.56
2019-05-29T09:02:10.460Z,98036.64
2019-05-29T09:04:38.254Z,98044.58
2019-05-29T09:07:06.133Z,98041.88
2019-05-29T09:09:33.930Z,98038.41
2019-05-29T09:12:01.717Z,98041.74
2019-05-29T09:14:29.543Z,98049.45
2019-05-29T09:16:57.352Z,98057.59
2019-05-29T09:19:25.154Z,98076.89
2019-05-29T09:21:52.922Z,98081.58
2019-05-29T09:24:20.989Z,98083.63
2019-05-29T09:26:48.952Z,98088.80
2019-05-29T09:29:19.986Z,98095.70
2019-05-29T09:31:46.304Z,98112.48
2019-05-29T09:34:15.502Z,98116.63
2019-05-29T09:36:43.668Z,98124.61
2019-05-29T09:39:11.600Z,98132.39
2019-05-29T09:41:39.589Z,98137.28
2019-05-29T09:44:07.411Z,98144.28
2019-05-29T09:46:35.204Z,98142.80
2019-05-29T09:49:02.988Z,98148.95
2019-05-29T09:51:30.828Z,98150.39
2019-05-29T09:53:59.909Z,98148.89
2019-05-29T09:56:28.512Z,98152.61
2019-05-29T09:58:57.837Z,98160.99
2019-05-29T10:01:26.019Z,98158.30
2019-05-29T10:03:56.377Z,98158.67
2019-05-29T10:06:24.111Z,98160.69
2019-05-29T10:08:54.161Z,98167.77
2019-05-29T10:11:21.569Z,98165.20
2019-05-29T10:13:49.359Z,98163.38
2019-05-29T10:16:17.158Z,98157.66
2019-05-29T10:18:44.951Z,98161.98
2019-05-29T10:21:13.042Z,98169.91
2019-05-29T10:23:40.832Z,98163.59
2019-05-29T10:26:08.700Z,98162.95
2019-05-29T10:28:49.925Z,98165.02
2019-05-29T10:31:06.231Z,98167.83
2019-05-29T10:33:34.261Z,98169.16
2019-05-29T10:36:04.112Z,98176.89
2019-05-29T10:38:31.700Z,98170.92
2019-05-29T10:41:06.288Z,98176.55
2019-05-29T10:43:34.164Z,98178.25
2019-05-29T10:45:59.221Z,98176.03
2019-05-29T10:48:27.058Z,98173.91
2019-05-29T10:50:55.466Z,98176.04
2019-05-29T10:53:23.335Z,98179.41
2019-05-29T10:55:52.584Z,98188.52
2019-05-29T10:58:20.840Z,98187.05
2019-05-29T11:00:49.128Z,98187.50
2019-05-29T11:03:17.068Z,98188.11
2019-05-29T11:05:45.567Z,98179.84
2019-05-29T11:08:13.662Z,98182.41
2019-05-29T11:10:41.451Z,98179.71
2019-05-29T11:13:09.383Z,98186.34
2019-05-29T11:15:37.184Z,98191.55
2019-05-29T11:18:04.993Z,98190.56
2019-05-29T11:20:33.575Z,98190.64
2019-05-29T11:23:01.380Z,98192.13
2019-05-29T11:25:29.545Z,98190.38
2019-05-29T11:27:58.570Z,98190.16
2019-05-29T11:30:26.554Z,98176.16
2019-05-29T11:32:55.746Z,98186.12
2019-05-29T11:35:24.149Z,98189.79
2019-05-29T11:37:52.533Z,98186.22
2019-05-29T11:40:20.599Z,98190.63
2019-05-29T11:42:48.411Z,98190.02
2019-05-29T11:45:16.258Z,98187.70
2019-05-29T11:47:44.174Z,98189.69
2019-05-29T11:50:19.223Z,98195.81
2019-05-29T11:52:43.623Z,98192.78
2019-05-29T11:55:11.647Z,98202.66
2019-05-29T11:57:39.888Z,98200.78
2019-05-29T12:00:19.087Z,98201.44
2019-05-29T12:02:37.458Z,98210.99
2019-05-29T12:05:06.390Z,98218.44
2019-05-29T12:07:34.178Z,98222.94
2019-05-29T12:10:04.432Z,98227.46
2019-05-29T12:12:31.856Z,98222.52
2019-05-29T12:15:09.783Z,98224.17
2019-05-29T12:17:29.362Z,98236.45
2019-05-29T12:19:59.838Z,98234.28
2019-05-29T12:22:26.887Z,98235.19
2019-05-29T12:24:54.779Z,98235.41
2019-05-29T12:27:22.595Z,98233.97
2019-05-29T12:29:50.463Z,98239.09
2019-05-29T12:32:18.300Z,98241.05
2019-05-29T12:34:53.801Z,98243.14
2019-05-29T12:37:15.693Z,98238.45
2019-05-29T12:39:43.557Z,98234.45
2019-05-29T12:42:11.408Z,98245.30
2019-05-29T12:44:39.538Z,98244.48
2019-05-29T12:47:07.386Z,98248.91
2019-05-29T12:49:35.410Z,98249.50
2019-05-29T12:52:07.239Z,98249.34
2019-05-29T12:54:33.935Z,98247.19
2019-05-29T12:57:02.308Z,98251.73
2019-05-29T12:59:30.420Z,98252.67
2019-05-29T13:02:00.420Z,98250.92
2019-05-29T13:04:28.432Z,98249.16
2019-05-29T13:06:56.244Z,98257.19
2019-05-29T13:09:24.149Z,98253.61
2019-05-29T13:11:51.936Z,98256.51
2019-05-29T13:14:19.723Z,98261.22
2019-05-29T13:16:47.773Z,98267.81
2019-05-29T13:19:15.925Z,98264.24
2019-05-29T13:21:43.690Z,98269.38
2019-05-29T13:24:11.910Z,98279.11
2019-05-29T13:26:40.018Z,98265.52
2019-05-29T13:29:07.792Z,98270.95
2019-05-29T13:31:35.715Z,98272.36
2019-05-29T13:34:04.411Z,98277.98
2019-05-29T13:36:32.292Z,98277.56
2019-05-29T13:39:00.227Z,98274.84
2019-05-29T13:41:28.340Z,98281.61
2019-05-29T13:43:56.446Z,98271.39
2019-05-29T13:46:24.648Z,98274.81
2019-05-29T13:48:52.691Z,98274.02
2019-05-29T13:51:20.462Z,98283.89
2019-05-29T13:54:01.928Z,98282.12
2019-05-29T13:56:17.730Z,98286.37
2019-05-29T13:58:45.752Z,98288.33
2019-05-29T14:01:13.528Z,98283.00
2019-05-29T14:03:41.312Z,98287.50
2019-05-29T14:06:09.648Z,98285.46
2019-05-29T14:08:37.574Z,98287.13
2019-05-29T14:11:05.402Z,98288.66
2019-05-29T14:13:33.157Z,98301.41
2019-05-29T14:16:02.273Z,98292.76
2019-05-29T14:18:30.256Z,98303.64
2019-05-29T14:20:58.022Z,98302.55
2019-05-29T14:23:25.805Z,98305.17
2019-05-29T14:25:53.560Z,98311.70
2019-05-29T14:28:21.319Z,98306.66
2019-05-29T14:30:49.260Z,98303.07
2019-05-29T14:33:17.018Z,98307.45
2019-05-29T14:35:44.791Z,98310.27
2019-05-29T14:38:14.942Z,98311.83
2019-05-29T14:40:42.065Z,98311.62
2019-05-29T14:43:13.700Z,98313.45
2019-05-29T14:45:39.660Z,98319.24
2019-05-29T14:48:08.148Z,98325.77
2019-05-29T14:50:36.066Z,98328.13
2019-05-29T14:53:04.993Z,98327.59
2019-05-29T14:55:32.990Z,98331.45
2019-05-29T14:58:00.805Z,98331.23
2019-05-29T15:00:28.888Z,98332.73
2019-05-29T15:02:56.644Z,98329.33
2019-05-29T15:05:24.440Z,98335.19
2019-05-29T15:07:52.538Z,98331.46
2019-05-29T15:10:26.990Z,98335.64
2019-05-29T15:12:50.262Z,98335.28
2019-05-29T15:15:18.192Z,98338.99
2019-05-29T15:17:46.609Z,98342.00
2019-05-29T15:20:16.783Z,98352.19
2019-05-29T15:22:44.425Z,98367.08
2019-05-29T15:25:21.080Z,98379.73
2019-05-29T15:27:42.150Z,98377.49
2019-05-29T15:30:13.584Z,98378.31
2019-05-29T15:32:40.428Z,98375.02
2019-05-29T15:35:12.776Z,98366.62
2019-05-29T15:37:39.103Z,98364.61
2019-05-29T15:40:06.987Z,98363.55
2019-05-29T15:42:35.091Z,98365.41
2019-05-29T15:45:03.040Z,98373.61
2019-05-29T15:47:30.800Z,98366.73
2019-05-29T15:49:58.636Z,98373.96
2019-05-29T15:52:26.408Z,98375.84
2019-05-29T15:54:54.531Z,98372.27
2019-05-29T15:57:22.562Z,98367.82
2019-05-29T15:59:50.337Z,98366.05
2019-05-29T16:02:18.194Z,98367.21
2019-05-29T16:04:46.112Z,98368.34
2019-05-29T16:07:14.108Z,98373.33
2019-05-29T16:09:41.932Z,98380.20
2019-05-29T16:12:10.531Z,98380.08
2019-05-29T16:14:38.411Z,98392.55
2019-05-29T16:17:06.250Z,98393.94
2019-05-29T16:19:34.012Z,98400.22
2019-05-29T16:22:02.144Z,98401.04
2019-05-29T16:24:29.920Z,98405.16
2019-05-29T16:27:08.286Z,98407.91
2019-05-29T16:29:27.482Z,98407.72
2019-05-29T16:31:55.319Z,98410.42
2019-05-29T16:34:23.167Z,98416.42
2019-05-29T16:36:50.940Z,98417.50
2019-05-29T16:39:21.035Z,98418.48
2019-05-29T16:41:48.934Z,98422.72
2019-05-29T16:44:18.145Z,98427.42
2019-05-29T16:46:46.201Z,98425.52
2019-05-29T16:49:14.460Z,98425.55
2019-05-29T16:51:42.457Z,98424.47
2019-05-29T16:54:10.618Z,98430.47
2019-05-29T16:56:38.407Z,98433.40
2019-05-29T16:59:06.245Z,98429.56
2019-05-29T17:01:34.087Z,98433.31
2019-05-29T17:04:01.849Z,98434.80
2019-05-29T17:06:29.641Z,98443.72
2019-05-29T17:08:57.811Z,98441.58
2019-05-29T17:11:25.558Z,98443.98
2019-05-29T17:13:53.342Z,98453.50
2019-05-29T17:16:21.104Z,98450.43
2019-05-29T17:18:49.177Z,98451.36
2019-05-29T17:21:17.254Z,98444.80
2019-05-29T17:23:45.020Z,98446.93
2019-05-29T17:26:12.786Z,98446.78
2019-05-29T17:28:40.590Z,98445.78
2019-05-29T17:31:08.717Z,98455.12
2019-05-29T17:33:36.494Z,98463.20
2019-05-29T17:36:04.380Z,98463.92
2019-05-29T17:38:32.170Z,98462.63
2019-05-29T17:40:59.943Z,98472.36
2019-05-29T17:43:28.766Z,98465.56
2019-05-29T17:45:56.864Z,98472.28
2019-05-29T17:48:25.563Z,98473.62
2019-05-29T17:50:53.989Z,98472.84
2019-05-29T17:53:22.520Z,98475.88
2019-05-29T17:55:50.415Z,98477.03
2019-05-29T17:58:18.670Z,98480.40
2019-05-29T18:00:47.075Z,98493.52
2019-05-29T18:03:16.058Z,98481.10
2019-05-29T18:05:44.003Z,98487.81
2019-05-29T18:08:11.804Z,98495.66
2019-05-29T18:10:39.573Z,98494.69
2019-05-29T18:13:07.364Z,98496.73
2019-05-29T18:15:35.145Z,98503.00
2019-05-29T18:18:03.916Z,98509.09
2019-05-29T18:20:31.788Z,98507.75
2019-05-29T18:22:59.556Z,98501.63
2019-05-29T18:25:28.114Z,98507.80
2019-05-29T18:27:56.132Z,98506.79
2019-05-29T18:30:24.485Z,98512.48
2019-05-29T18:32:52.338Z,98518.06
2019-05-29T18:35:20.739Z,98518.50
2019-05-29T18:37:48.682Z,98516.53
2019-05-29T18:40:17.573Z,98522.00
2019-05-29T18:42:45.406Z,98526.59
2019-05-29T18:45:20.923Z,98528.69
2019-05-29T18:47:42.875Z,98532.59
2019-05-29T18:50:10.801Z,98536.49
2019-05-29T18:52:38.591Z,98536.49
2019-05-29T18:55:06.447Z,98548.91
2019-05-29T18:57:34.295Z,98547.44
2019-05-29T19:00:02.133Z,98545.37
2019-05-29T19:02:29.971Z,98547.90
2019-05-29T19:04:58.455Z,98547.11
2019-05-29T19:07:26.223Z,98555.55
2019-05-29T19:09:54.012Z,98561.95
2019-05-29T19:12:21.821Z,98558.52
2019-05-29T19:14:49.571Z,98560.91
2019-05-29T19:17:17.343Z,98575.38
2019-05-29T19:19:45.155Z,98577.77
2019-05-29T19:22:12.937Z,98576.89
2019-05-29T19:24:40.961Z,98584.52
2019-05-29T19:27:08.875Z,98588.18
2019-05-29T19:29:36.635Z,98590.13
2019-05-29T19:32:04.539Z,98586.02
2019-05-29T19:34:33.526Z,98599.63
2019-05-29T19:37:01.829Z,98595.06
2019-05-29T19:39:30.275Z,98601.95
2019-05-29T19:41:58.883Z,98601.83
2019-05-29T19:44:28.225Z,98606.28
2019-05-29T19:46:56.196Z,98605.27
2019-05-29T19:49:25.466Z,98604.02
2019-05-29T19:51:53.665Z,98609.02
2019-05-29T19:54:21.473Z,98616.67
2019-05-29T19:56:49.306Z,98614.95
2019-05-29T19:59:17.268Z,98622.83
2019-05-29T20:01:45.346Z,98620.09
2019-05-29T20:04:13.163Z,98624.20
2019-05-29T20:06:40.918Z,98622.14
2019-05-29T20:09:08.840Z,98630.69
2019-05-29T20:11:37.902Z,98626.48
2019-05-29T20:14:07.619Z,98631.61
2019-05-29T20:16:36.255Z,98634.88
2019-05-29T20:19:04.099Z,98636.02
2019-05-29T20:21:32.715Z,98636.82
2019-05-29T20:24:00.609Z,98633.52
2019-05-29T20:26:29.177Z,98634.44
2019-05-29T20:28:57.135Z,98635.80
2019-05-29T20:31:24.889Z,98635.57
2019-05-29T20:33:52.785Z,98633.75
2019-05-29T20:36:20.547Z,98643.78
2019-05-29T20:38:48.306Z,98642.86
2019-05-29T20:41:16.128Z,98643.32
2019-05-29T20:43:46.781Z,98644.89
2019-05-29T20:46:14.970Z,98651.19
2019-05-29T20:48:43.006Z,98647.08
2019-05-29T20:51:10.824Z,98649.25
2019-05-29T20:53:40.298Z,98658.36
2019-05-29T20:56:08.691Z,98653.58
2019-05-29T20:58:37.716Z,98664.59
2019-05-29T21:01:05.967Z,98656.39
2019-05-29T21:03:34.324Z,98656.66
2019-05-29T21:06:02.264Z,98663.11
2019-05-29T21:08:30.248Z,98663.56
2019-05-29T21:10:58.064Z,98676.86
2019-05-29T21:13:26.112Z,98669.55
2019-05-29T21:15:53.879Z,98678.31
2019-05-29T21:18:21.680Z,98670.80
2019-05-29T21:20:49.443Z,98682.17
2019-05-29T21:23:17.220Z,98678.28
2019-05-29T21:25:45.187Z,98676.77
2019-05-29T21:28:12.975Z,98680.30
2019-05-29T21:30:41.763Z,98685.07
2019-05-29T21:33:09.607Z,98688.14
2019-05-29T21:35:38.001Z,98686.19
2019-05-29T21:38:06.365Z,98684.92
2019-05-29T21:40:34.354Z,98684.70
2019-05-29T21:43:02.401Z,98687.89
2019-05-29T21:45:30.243Z,98683.09
2019-05-29T21:47:58.213Z,98691.06
2019-05-29T21:50:26.025Z,98693.10
2019-05-29T21:52:53.800Z,98692.64
2019-05-29T21:55:21.646Z,98698.10
2019-05-29T21:57:50.309Z,98699.70
2019-05-29T22:00:23.598Z,98704.47
2019-05-29T22:02:51.632Z,98708.33
2019-05-29T22:05:19.646Z,98708.08
2019-05-29T22:07:47.416Z,98710.08
2019-05-29T22:10:15.684Z,98707.89
2019-05-29T22:12:43.452Z,98709.59
2019-05-29T22:15:11.396Z,98717.88
2019-05-29T22:17:39.363Z,98720.37
2019-05-29T22:20:07.296Z,98712.63
2019-05-29T22:22:35.103Z,98714.52
2019-05-29T22:25:02.904Z,98713.26
2019-05-29T22:27:30.684Z,98721.31
2019-05-29T22:29:59.436Z,98727.01
2019-05-29T22:32:27.331Z,98726.84
2019-05-29T22:34:55.457Z,98718.85
2019-05-29T22:37:23.388Z,98725.11
2019-05-29T22:39:51.529Z,98726.70
2019-05-29T22:42:19.432Z,98728.41
2019-05-29T22:44:47.263Z,98727.56
2019-05-29T22:47:15.159Z,98723.00
2019-05-29T22:49:42.935Z,98728.23
2019-05-29T22:52:10.719Z,98730.39
2019-05-29T22:54:38.547Z,98728.46
2019-05-29T22:57:06.835Z,98723.67
2019-05-29T22:59:34.607Z,98728.42
2019-05-29T23:02:02.634Z,98730.78
2019-05-29T23:04:30.520Z,98726.19
2019-05-29T23:06:58.373Z,98730.14
2019-05-29T23:09:26.226Z,98729.02
2019-05-29T23:11:54.298Z,98730.53
2019-05-29T23:14:22.497Z,98729.27
2019-05-29T23:16:50.347Z,98735.75
2019-05-29T23:19:18.248Z,98731.05
2019-05-29T23:21:46.044Z,98730.48
2019-05-29T23:24:13.824Z,98730.06
2019-05-29T23:26:41.584Z,98740.45
2019-05-29T23:29:09.346Z,98738.95
2019-05-29T23:31:37.148Z,98740.13
2019-05-29T23:34:05.214Z,98749.86
2019-05-29T23:36:32.972Z,98748.50
2019-05-29T23:39:01.388Z,98745.95
2019-05-29T23:41:29.735Z,98754.88
2019-05-29T23:43:57.514Z,98751.67
2019-05-29T23:46:25.311Z,98745.83
2019-05-29T23:48:53.483Z,98748.08
2019-05-29T23:51:21.339Z,98752.11
2019-05-29T23:53:49.978Z,98744.43
2019-05-29T23:56:17.796Z,98741.97
2019-05-29T23:58:45.543Z,98747.76
